Detall de PIREP

Printer-friendly versionPDF version

[2015/08/24 16:32:00]
Flight IATA:CT3129
Pilot Number:042
Company ICAO:CAT
Aircraft Type:A320/E
PAX:96
Departing Airport: LEZG
Destination Airport: LEVC
Alternate Airport:LEAL
Online: VATSIM
Route:CMA R29 MANDY
Flight Level:F270
No Slew and time accel
No pause
Crash detect
Detect pilot in Cockpit between each 30 and 45 minutes
16:32 Zero fuel Weight: 92000 Lbs, Fuel Weight: 22041 Lbs
16:32 VATSIM:LEZG 241600Z 32011KT 260V010 9999 FEW070 26/05 Q1014
16:32 VATSIM:LEVC 241600Z 27015G26KT 230V300 9999 FEW030 32/11 Q1012 NOSIG
16:36 Parking Brakes off
16:42 Take-off
16:42 Take off Weight: 130430 Lbs
16:42 Wind: 321º @ 011 Knots Heading: 300º
16:42 POS N41º 39´ 46´´ W001º 01´ 31´´
16:42 Flaps:3 at 144 Knots
16:42 Gear Up: 143 Knots
16:43 Flaps:2 at 146 Knots
16:43 Flaps:0 at 184 Knots
16:52 TOC
16:52 Fuel Weight: 19605 Lb
16:57 Wind:286º@050 Knots Heading: 173º Ground Speed: 474 Knots Altitude 27011 ft
16:59 TOD
16:59 Fuel Weight: 18836 Lb
17:09 Flaps:1 at 193 Knots
17:12 Wind:276º@014 Knots Heading: 290º Ground Speed: 182 Knots Altitude 3195 ft
17:13 Gear Down: 178 Knots
17:13 Flaps:3 at 177 Knots
17:13 Flaps:4 at 160 Knots
17:13 Flaps:5 at 150 Knots
17:16 TouchDown:Rate -187 ft/min Speed: 125 Knots
17:16 VATSIM:LEVC 241700Z 25014KT 230V290 9999 FEW030 32/11 Q1012 NOSIG
17:16 Land
17:16 Wind:260º@015 Knots
17:16 Heading: 293º
17:16 Flight Duration: 00:34
17:16 Landing Weight: 126780 Lbs
17:16 POS N39º 29´ 19´´ W000º 28´ 49´´
17:16 Parking brakes on
17:16 Block to Block Duration: 00:40
17:16 Final Fuel: 18066 Lbls
17:16 Spent Fuel: 3974 Lbls
17:16 Flight Length: 198 NM
17:16 TOD Land Length: 84 NM

Exportar CSV

Powered by Drupal - Modified by Danger4k